sensor_id;sensor_type;location;lat;lon;timestamp;pressure;altitude;pressure_sealevel;temperature;humidity
79617;BME280;69097;52.132;5.422;2024-01-15T00:02:00;100497.69;;;1.90;100.00
79617;BME280;69097;52.132;5.422;2024-01-15T00:04:26;100488.59;;;1.89;100.00
79617;BME280;69097;52.132;5.422;2024-01-15T00:06:53;100490.94;;;1.87;100.00
79617;BME280;69097;52.132;5.422;2024-01-15T00:09:19;100479.88;;;1.87;100.00
79617;BME280;69097;52.132;5.422;2024-01-15T00:11:46;100480.66;;;1.84;100.00
79617;BME280;69097;52.132;5.422;2024-01-15T00:14:12;100478.28;;;1.83;100.00
79617;BME280;69097;52.132;5.422;2024-01-15T00:16:41;100483.00;;;1.82;100.00
79617;BME280;69097;52.132;5.422;2024-01-15T00:19:07;100471.56;;;1.80;100.00
79617;BME280;69097;52.132;5.422;2024-01-15T00:21:34;100475.47;;;1.79;100.00
79617;BME280;69097;52.132;5.422;2024-01-15T00:24:00;100467.94;;;1.76;100.00
79617;BME280;69097;52.132;5.422;2024-01-15T00:26:27;100456.09;;;1.76;100.00
79617;BME280;69097;52.132;5.422;2024-01-15T00:28:54;100457.66;;;1.73;100.00
79617;BME280;69097;52.132;5.422;2024-01-15T00:31:20;100458.44;;;1.70;100.00
79617;BME280;69097;52.132;5.422;2024-01-15T00:33:48;100460.78;;;1.68;100.00
79617;BME280;69097;52.132;5.422;2024-01-15T00:36:15;100450.88;;;1.67;100.00
79617;BME280;69097;52.132;5.422;2024-01-15T00:38:43;100454.03;;;1.66;100.00
79617;BME280;69097;52.132;5.422;2024-01-15T00:41:10;100454.44;;;1.64;100.00
79617;BME280;69097;52.132;5.422;2024-01-15T00:43:36;100456.78;;;1.62;100.00
79617;BME280;69097;52.132;5.422;2024-01-15T00:46:03;100455.59;;;1.60;100.00
79617;BME280;69097;52.132;5.422;2024-01-15T00:48:30;100438.19;;;1.59;100.00
79617;BME280;69097;52.132;5.422;2024-01-15T00:50:58;100442.16;;;1.58;100.00
79617;BME280;69097;52.132;5.422;2024-01-15T00:53:25;100432.25;;;1.57;100.00
79617;BME280;69097;52.132;5.422;2024-01-15T00:55:52;100420.78;;;1.55;100.00
79617;BME280;69097;52.132;5.422;2024-01-15T00:58:18;100423.91;;;1.50;100.00
79617;BME280;69097;52.132;5.422;2024-01-15T01:00:45;100432.19;;;1.47;100.00
79617;BME280;69097;52.132;5.422;2024-01-15T01:03:12;100427.78;;;1.42;100.00
79617;BME280;69097;52.132;5.422;2024-01-15T01:05:38;100432.13;;;1.40;100.00
79617;BME280;69097;52.132;5.422;2024-01-15T01:08:05;100425.00;;;1.39;100.00
79617;BME280;69097;52.132;5.422;2024-01-15T01:10:31;100429.34;;;1.36;100.00
79617;BME280;69097;52.132;5.422;2024-01-15T01:12:58;100425.72;;;1.32;100.00
79617;BME280;69097;52.132;5.422;2024-01-15T01:15:24;100424.16;;;1.31;100.00
79617;BME280;69097;52.132;5.422;2024-01-15T01:17:51;100417.41;;;1.28;100.00
79617;BME280;69097;52.132;5.422;2024-01-15T01:20:18;100415.44;;;1.29;100.00
79617;BME280;69097;52.132;5.422;2024-01-15T01:22:45;100405.97;;;1.30;100.00
79617;BME280;69097;52.132;5.422;2024-01-15T01:25:11;100409.94;;;1.29;100.00
79617;BME280;69097;52.132;5.422;2024-01-15T01:27:38;100420.59;;;1.31;100.00
79617;BME280;69097;52.132;5.422;2024-01-15T01:30:05;100422.16;;;1.28;100.00
79617;BME280;69097;52.132;5.422;2024-01-15T01:32:32;100426.47;;;1.25;100.00
79617;BME280;69097;52.132;5.422;2024-01-15T01:34:58;100421.31;;;1.24;100.00
79617;BME280;69097;52.132;5.422;2024-01-15T01:37:25;100429.56;;;1.20;100.00
79617;BME280;69097;52.132;5.422;2024-01-15T01:39:52;100424.44;;;1.19;100.00
79617;BME280;69097;52.132;5.422;2024-01-15T01:42:18;100435.06;;;1.17;100.00
79617;BME280;69097;52.132;5.422;2024-01-15T01:44:45;100421.22;;;1.13;100.00
79617;BME280;69097;52.132;5.422;2024-01-15T01:47:12;100417.25;;;1.11;100.00
79617;BME280;69097;52.132;5.422;2024-01-15T01:49:38;100412.94;;;1.13;100.00
79617;BME280;69097;52.132;5.422;2024-01-15T01:52:05;100411.78;;;1.14;100.00
79617;BME280;69097;52.132;5.422;2024-01-15T01:54:34;100411.34;;;1.12;100.00
79617;BME280;69097;52.132;5.422;2024-01-15T01:57:02;100412.50;;;1.11;100.00
79617;BME280;69097;52.132;5.422;2024-01-15T01:59:30;100417.66;;;1.13;100.00
79617;BME280;69097;52.132;5.422;2024-01-15T02:01:57;100413.75;;;1.14;100.00
79617;BME280;69097;52.132;5.422;2024-01-15T02:04:24;100411.78;;;1.14;100.00
79617;BME280;69097;52.132;5.422;2024-01-15T02:06:51;100411.78;;;1.14;100.00
79617;BME280;69097;52.132;5.422;2024-01-15T02:09:18;100413.78;;;1.17;100.00
79617;BME280;69097;52.132;5.422;2024-01-15T02:11:49;100431.19;;;1.25;100.00
79617;BME280;69097;52.132;5.422;2024-01-15T02:14:16;100455.31;;;1.32;100.00
79617;BME280;69097;52.132;5.422;2024-01-15T02:16:43;100451.03;;;1.38;100.00
79617;BME280;69097;52.132;5.422;2024-01-15T02:19:16;100444.78;;;1.44;100.00
79617;BME280;69097;52.132;5.422;2024-01-15T02:21:44;100435.69;;;1.44;100.00
79617;BME280;69097;52.132;5.422;2024-01-15T02:24:11;100439.25;;;1.44;100.00
79617;BME280;69097;52.132;5.422;2024-01-15T02:26:38;100421.50;;;1.45;100.00
79617;BME280;69097;52.132;5.422;2024-01-15T02:29:05;100416.38;;;1.47;100.00
79617;BME280;69097;52.132;5.422;2024-01-15T02:31:38;100423.50;;;1.48;100.00
79617;BME280;69097;52.132;5.422;2024-01-15T02:34:05;100431.00;;;1.48;100.00
79617;BME280;69097;52.132;5.422;2024-01-15T02:36:32;100420.75;;;1.48;100.00
79617;BME280;69097;52.132;5.422;2024-01-15T02:38:59;100424.28;;;1.49;100.00
79617;BME280;69097;52.132;5.422;2024-01-15T02:41:25;100419.56;;;1.49;100.00
79617;BME280;69097;52.132;5.422;2024-01-15T02:43:52;100419.19;;;1.51;100.00
79617;BME280;69097;52.132;5.422;2024-01-15T02:46:19;100416.41;;;1.51;100.00
79617;BME280;69097;52.132;5.422;2024-01-15T02:48:45;100413.66;;;1.51;100.00
79617;BME280;69097;52.132;5.422;2024-01-15T02:51:12;100410.13;;;1.54;100.00
79617;BME280;69097;52.132;5.422;2024-01-15T02:53:38;100406.59;;;1.53;100.00
79617;BME280;69097;52.132;5.422;2024-01-15T02:56:07;100408.97;;;1.55;100.00
79617;BME280;69097;52.132;5.422;2024-01-15T02:58:34;100405.81;;;1.56;100.00
79617;BME280;69097;52.132;5.422;2024-01-15T03:01:01;100409.00;;;1.58;100.00
79617;BME280;69097;52.132;5.422;2024-01-15T03:03:29;100405.03;;;1.59;100.00
79617;BME280;69097;52.132;5.422;2024-01-15T03:05:55;100404.59;;;1.54;100.00
79617;BME280;69097;52.132;5.422;2024-01-15T03:08:22;100406.97;;;1.55;100.00
79617;BME280;69097;52.132;5.422;2024-01-15T03:10:49;100402.63;;;1.54;100.00
79617;BME280;69097;52.132;5.422;2024-01-15T03:13:15;100398.28;;;1.53;100.00
79617;BME280;69097;52.132;5.422;2024-01-15T03:15:43;100403.44;;;1.55;100.00
79617;BME280;69097;52.132;5.422;2024-01-15T03:18:09;100399.09;;;1.57;100.00
79617;BME280;69097;52.132;5.422;2024-01-15T03:20:36;100395.16;;;1.58;100.00
79617;BME280;69097;52.132;5.422;2024-01-15T03:23:02;100396.75;;;1.59;100.00
79617;BME280;69097;52.132;5.422;2024-01-15T03:25:29;100396.72;;;1.56;100.00
79617;BME280;69097;52.132;5.422;2024-01-15T03:27:56;100401.09;;;1.57;100.00
79617;BME280;69097;52.132;5.422;2024-01-15T03:30:22;100403.03;;;1.56;100.00
79617;BME280;69097;52.132;5.422;2024-01-15T03:32:49;100400.66;;;1.55;100.00
79617;BME280;69097;52.132;5.422;2024-01-15T03:35:16;100418.78;;;1.52;100.00
79617;BME280;69097;52.132;5.422;2024-01-15T03:37:43;100414.84;;;1.50;100.00
79617;BME280;69097;52.132;5.422;2024-01-15T03:40:10;100421.91;;;1.47;100.00
79617;BME280;69097;52.132;5.422;2024-01-15T03:42:37;100421.13;;;1.50;100.00
79617;BME280;69097;52.132;5.422;2024-01-15T03:45:04;100432.59;;;1.52;100.00
79617;BME280;69097;52.132;5.422;2024-01-15T03:47:30;100427.47;;;1.51;100.00
79617;BME280;69097;52.132;5.422;2024-01-15T03:49:57;100422.75;;;1.51;100.00
79617;BME280;69097;52.132;5.422;2024-01-15T03:52:23;100405.38;;;1.51;100.00
79617;BME280;69097;52.132;5.422;2024-01-15T03:54:50;100396.28;;;1.50;100.00
79617;BME280;69097;52.132;5.422;2024-01-15T03:57:16;100390.38;;;1.52;100.00
79617;BME280;69097;52.132;5.422;2024-01-15T03:59:43;100379.72;;;1.54;100.00
79617;BME280;69097;52.132;5.422;2024-01-15T04:02:10;100384.09;;;1.55;100.00
79617;BME280;69097;52.132;5.422;2024-01-15T04:04:40;100373.41;;;1.53;100.00
79617;BME280;69097;52.132;5.422;2024-01-15T04:07:08;100382.47;;;1.54;100.00
79617;BME280;69097;52.132;5.422;2024-01-15T04:09:35;100364.72;;;1.51;100.00
79617;BME280;69097;52.132;5.422;2024-01-15T04:12:02;100365.88;;;1.50;100.00
79617;BME280;69097;52.132;5.422;2024-01-15T04:14:28;100357.97;;;1.49;100.00
79617;BME280;69097;52.132;5.422;2024-01-15T04:16:55;100359.56;;;1.46;100.00
79617;BME280;69097;52.132;5.422;2024-01-15T04:19:21;100358.34;;;1.44;100.00
79617;BME280;69097;52.132;5.422;2024-01-15T04:21:48;100365.03;;;1.43;100.00
79617;BME280;69097;52.132;5.422;2024-01-15T04:24:14;100352.41;;;1.42;100.00
79617;BME280;69097;52.132;5.422;2024-01-15T04:26:41;100359.53;;;1.43;100.00
79617;BME280;69097;52.132;5.422;2024-01-15T04:29:07;100350.81;;;1.41;100.00
79617;BME280;69097;52.132;5.422;2024-01-15T04:31:34;100349.66;;;1.42;100.00
79617;BME280;69097;52.132;5.422;2024-01-15T04:34:00;100353.56;;;1.41;100.00
79617;BME280;69097;52.132;5.422;2024-01-15T04:36:27;100348.44;;;1.39;100.00
79617;BME280;69097;52.132;5.422;2024-01-15T04:38:53;100347.63;;;1.39;100.00
79617;BME280;69097;52.132;5.422;2024-01-15T04:41:20;100338.56;;;1.38;100.00
79617;BME280;69097;52.132;5.422;2024-01-15T04:43:46;100337.78;;;1.38;100.00
79617;BME280;69097;52.132;5.422;2024-01-15T04:46:13;100336.97;;;1.37;100.00
79617;BME280;69097;52.132;5.422;2024-01-15T04:48:39;100331.88;;;1.39;100.00
79617;BME280;69097;52.132;5.422;2024-01-15T04:51:08;100328.72;;;1.41;100.00
79617;BME280;69097;52.132;5.422;2024-01-15T04:53:35;100325.94;;;1.41;100.00
79617;BME280;69097;52.132;5.422;2024-01-15T04:56:03;100330.31;;;1.42;100.00
79617;BME280;69097;52.132;5.422;2024-01-15T04:58:29;100331.09;;;1.42;100.00
79617;BME280;69097;52.132;5.422;2024-01-15T05:00:56;100333.09;;;1.42;100.00
79617;BME280;69097;52.132;5.422;2024-01-15T05:03:23;100337.41;;;1.43;100.00
79617;BME280;69097;52.132;5.422;2024-01-15T05:05:49;100333.84;;;1.42;100.00
79617;BME280;69097;52.132;5.422;2024-01-15T05:08:16;100330.31;;;1.42;100.00
79617;BME280;69097;52.132;5.422;2024-01-15T05:10:42;100328.72;;;1.41;100.00
79617;BME280;69097;52.132;5.422;2024-01-15T05:13:09;100332.69;;;1.43;100.00
79617;BME280;69097;52.132;5.422;2024-01-15T05:15:35;100329.13;;;1.43;100.00
79617;BME280;69097;52.132;5.422;2024-01-15T05:18:02;100325.56;;;1.42;100.00
79617;BME280;69097;52.132;5.422;2024-01-15T05:20:29;100312.53;;;1.39;100.00
79617;BME280;69097;52.132;5.422;2024-01-15T05:22:55;100310.56;;;1.40;100.00
79617;BME280;69097;52.132;5.422;2024-01-15T05:25:22;100315.69;;;1.41;100.00
79617;BME280;69097;52.132;5.422;2024-01-15T05:27:49;100317.28;;;1.42;100.00
79617;BME280;69097;52.132;5.422;2024-01-15T05:30:15;100316.88;;;1.44;100.00
79617;BME280;69097;52.132;5.422;2024-01-15T05:32:43;100311.75;;;1.42;100.00
79617;BME280;69097;52.132;5.422;2024-01-15T05:35:09;100318.88;;;1.43;100.00
79617;BME280;69097;52.132;5.422;2024-01-15T05:37:36;100321.63;;;1.43;100.00
79617;BME280;69097;52.132;5.422;2024-01-15T05:40:03;100322.81;;;1.42;100.00
79617;BME280;69097;52.132;5.422;2024-01-15T05:42:31;100335.03;;;1.41;100.00
79617;BME280;69097;52.132;5.422;2024-01-15T05:44:58;100331.91;;;1.43;100.00
79617;BME280;69097;52.132;5.422;2024-01-15T05:47:25;100327.91;;;1.40;100.00
79617;BME280;69097;52.132;5.422;2024-01-15T05:49:52;100329.91;;;1.40;100.00
79617;BME280;69097;52.132;5.422;2024-01-15T05:52:19;100329.50;;;1.41;100.00
79617;BME280;69097;52.132;5.422;2024-01-15T05:54:47;100336.63;;;1.42;100.00
79617;BME280;69097;52.132;5.422;2024-01-15T05:57:13;100331.91;;;1.43;100.00
79617;BME280;69097;52.132;5.422;2024-01-15T05:59:40;100340.59;;;1.45;100.00
79617;BME280;69097;52.132;5.422;2024-01-15T06:02:06;100338.59;;;1.45;100.00
79617;BME280;69097;52.132;5.422;2024-01-15T06:04:33;100337.44;;;1.46;100.00
79617;BME280;69097;52.132;5.422;2024-01-15T06:06:59;100343.38;;;1.48;100.00
79617;BME280;69097;52.132;5.422;2024-01-15T06:09:26;100342.19;;;1.49;100.00
79617;BME280;69097;52.132;5.422;2024-01-15T06:11:52;100361.53;;;1.49;100.00
79617;BME280;69097;52.132;5.422;2024-01-15T06:14:19;100336.22;;;1.44;100.00
79617;BME280;69097;52.132;5.422;2024-01-15T06:16:45;100338.59;;;1.42;100.00
79617;BME280;69097;52.132;5.422;2024-01-15T06:19:12;100330.28;;;1.38;100.00
79617;BME280;69097;52.132;5.422;2024-01-15T06:21:38;100324.34;;;1.36;100.00
79617;BME280;69097;52.132;5.422;2024-01-15T06:24:05;100311.31;;;1.37;100.00
79617;BME280;69097;52.132;5.422;2024-01-15T06:26:32;100322.75;;;1.35;100.00
79617;BME280;69097;52.132;5.422;2024-01-15T06:28:58;100314.47;;;1.35;100.00
79617;BME280;69097;52.132;5.422;2024-01-15T06:31:24;100318.03;;;1.36;100.00
79617;BME280;69097;52.132;5.422;2024-01-15T06:33:51;100319.97;;;1.35;100.00
79617;BME280;69097;52.132;5.422;2024-01-15T06:36:18;100323.16;;;1.37;100.00
79617;BME280;69097;52.132;5.422;2024-01-15T06:38:44;100316.06;;;1.36;100.00
79617;BME280;69097;52.132;5.422;2024-01-15T06:41:11;100319.25;;;1.38;100.00
79617;BME280;69097;52.132;5.422;2024-01-15T06:43:37;100318.06;;;1.39;100.00
79617;BME280;69097;52.132;5.422;2024-01-15T06:46:04;100310.53;;;1.36;100.00
79617;BME280;69097;52.132;5.422;2024-01-15T06:48:34;100310.53;;;1.36;100.00
79617;BME280;69097;52.132;5.422;2024-01-15T06:51:00;100311.69;;;1.35;100.00
79617;BME280;69097;52.132;5.422;2024-01-15T06:53:27;100315.22;;;1.32;100.00
79617;BME280;69097;52.132;5.422;2024-01-15T06:55:53;100312.06;;;1.30;100.00
79617;BME280;69097;52.132;5.422;2024-01-15T06:58:20;100308.13;;;1.31;100.00
79617;BME280;69097;52.132;5.422;2024-01-15T07:00:46;100302.63;;;1.31;100.00
79617;BME280;69097;52.132;5.422;2024-01-15T07:03:13;100295.47;;;1.30;100.00
79617;BME280;69097;52.132;5.422;2024-01-15T07:05:40;100295.88;;;1.28;100.00
79617;BME280;69097;52.132;5.422;2024-01-15T07:08:06;100297.09;;;1.31;100.00
79617;BME280;69097;52.132;5.422;2024-01-15T07:10:33;100298.63;;;1.28;100.00
79617;BME280;69097;52.132;5.422;2024-01-15T07:13:03;100299.03;;;1.27;100.00
79617;BME280;69097;52.132;5.422;2024-01-15T07:15:31;100301.00;;;1.30;100.00
79617;BME280;69097;52.132;5.422;2024-01-15T07:17:57;100316.00;;;1.29;100.00
79617;BME280;69097;52.132;5.422;2024-01-15T07:20:24;100331.78;;;1.28;100.00
79617;BME280;69097;52.132;5.422;2024-01-15T07:22:51;100351.88;;;1.25;100.00
79617;BME280;69097;52.132;5.422;2024-01-15T07:25:17;100361.75;;;1.23;100.00
79617;BME280;69097;52.132;5.422;2024-01-15T07:27:44;100338.81;;;1.19;100.00
79617;BME280;69097;52.132;5.422;2024-01-15T07:30:11;100326.16;;;1.14;100.00
79617;BME280;69097;52.132;5.422;2024-01-15T07:32:38;100320.66;;;1.14;100.00
79617;BME280;69097;52.132;5.422;2024-01-15T07:35:05;100319.47;;;1.15;100.00
79617;BME280;69097;52.132;5.422;2024-01-15T07:37:32;100319.06;;;1.17;100.00
79617;BME280;69097;52.132;5.422;2024-01-15T07:39:59;100324.59;;;1.17;100.00
79617;BME280;69097;52.132;5.422;2024-01-15T07:42:27;100319.06;;;1.17;100.00
79617;BME280;69097;52.132;5.422;2024-01-15T07:44:53;100308.81;;;1.17;100.00
79617;BME280;69097;52.132;5.422;2024-01-15T07:47:20;100322.63;;;1.17;100.00
79617;BME280;69097;52.132;5.422;2024-01-15T07:49:46;100325.00;;;1.19;100.00
79617;BME280;69097;52.132;5.422;2024-01-15T07:52:13;100347.09;;;1.19;100.00
79617;BME280;69097;52.132;5.422;2024-01-15T07:54:40;100341.59;;;1.19;100.00
79617;BME280;69097;52.132;5.422;2024-01-15T07:57:06;100327.78;;;1.19;100.00
79617;BME280;69097;52.132;5.422;2024-01-15T07:59:34;100334.06;;;1.16;100.00
79617;BME280;69097;52.132;5.422;2024-01-15T08:02:01;100339.59;;;1.16;100.00
79617;BME280;69097;52.132;5.422;2024-01-15T08:04:28;100342.34;;;1.16;100.00
79617;BME280;69097;52.132;5.422;2024-01-15T08:06:55;100333.28;;;1.19;100.00
79617;BME280;69097;52.132;5.422;2024-01-15T08:09:23;100330.94;;;1.21;100.00
79617;BME280;69097;52.132;5.422;2024-01-15T08:11:49;100319.91;;;1.21;100.00
79617;BME280;69097;52.132;5.422;2024-01-15T08:14:17;100319.91;;;1.21;100.00
79617;BME280;69097;52.132;5.422;2024-01-15T08:16:44;100309.28;;;1.23;100.00
79617;BME280;69097;52.132;5.422;2024-01-15T08:19:10;100310.84;;;1.24;100.00
79617;BME280;69097;52.132;5.422;2024-01-15T08:21:37;100309.66;;;1.25;100.00
79617;BME280;69097;52.132;5.422;2024-01-15T08:24:04;100327.41;;;1.24;100.00
79617;BME280;69097;52.132;5.422;2024-01-15T08:26:30;100327.41;;;1.24;100.00
79617;BME280;69097;52.132;5.422;2024-01-15T08:28:57;100342.03;;;1.24;100.00
79617;BME280;69097;52.132;5.422;2024-01-15T08:31:24;100342.03;;;1.24;100.00
79617;BME280;69097;52.132;5.422;2024-01-15T08:33:51;100347.94;;;1.23;100.00
79617;BME280;69097;52.132;5.422;2024-01-15T08:36:18;100337.63;;;1.20;100.00
79617;BME280;69097;52.132;5.422;2024-01-15T08:38:45;100338.75;;;1.12;100.00
79617;BME280;69097;52.132;5.422;2024-01-15T08:41:11;100332.81;;;1.10;100.00
79617;BME280;69097;52.132;5.422;2024-01-15T08:43:38;100323.38;;;1.11;100.00
79617;BME280;69097;52.132;5.422;2024-01-15T08:46:04;100324.16;;;1.11;100.00
79617;BME280;69097;52.132;5.422;2024-01-15T08:48:31;100324.94;;;1.12;100.00
79617;BME280;69097;52.132;5.422;2024-01-15T08:50:58;100325.38;;;1.14;100.00
79617;BME280;69097;52.132;5.422;2024-01-15T08:53:24;100323.44;;;1.21;100.00
79617;BME280;69097;52.132;5.422;2024-01-15T08:55:51;100315.97;;;1.25;100.00
79617;BME280;69097;52.132;5.422;2024-01-15T08:58:17;100327.06;;;1.29;100.00
79617;BME280;69097;52.132;5.422;2024-01-15T09:00:44;100335.75;;;1.31;100.00
79617;BME280;69097;52.132;5.422;2024-01-15T09:03:11;100333.75;;;1.32;100.00
79617;BME280;69097;52.132;5.422;2024-01-15T09:05:38;100336.53;;;1.32;100.00
79617;BME280;69097;52.132;5.422;2024-01-15T09:08:04;100340.50;;;1.34;100.00
79617;BME280;69097;52.132;5.422;2024-01-15T09:10:31;100342.91;;;1.39;100.00
79617;BME280;69097;52.132;5.422;2024-01-15T09:12:57;100348.06;;;1.41;100.00
79617;BME280;69097;52.132;5.422;2024-01-15T09:15:24;100362.66;;;1.41;100.00
79617;BME280;69097;52.132;5.422;2024-01-15T09:17:50;100342.91;;;1.39;100.00
79617;BME280;69097;52.132;5.422;2024-01-15T09:20:17;100333.06;;;1.38;100.00
79617;BME280;69097;52.132;5.422;2024-01-15T09:22:44;100329.03;;;1.32;100.00
79617;BME280;69097;52.132;5.422;2024-01-15T09:25:11;100326.28;;;1.32;100.00
79617;BME280;69097;52.132;5.422;2024-01-15T09:27:38;100325.13;;;1.33;100.00
79617;BME280;69097;52.132;5.422;2024-01-15T09:30:05;100341.69;;;1.37;100.00
79617;BME280;69097;52.132;5.422;2024-01-15T09:32:32;100333.41;;;1.37;100.00
79617;BME280;69097;52.132;5.422;2024-01-15T09:34:59;100342.09;;;1.35;100.00
79617;BME280;69097;52.132;5.422;2024-01-15T09:37:25;100329.47;;;1.34;100.00
79617;BME280;69097;52.132;5.422;2024-01-15T09:40:12;100337.38;;;1.39;100.00
79617;BME280;69097;52.132;5.422;2024-01-15T09:42:43;100331.13;;;1.46;100.00
79617;BME280;69097;52.132;5.422;2024-01-15T09:45:10;100327.66;;;1.59;100.00
79617;BME280;69097;52.132;5.422;2024-01-15T09:47:37;100333.28;;;1.73;100.00
79617;BME280;69097;52.132;5.422;2024-01-15T09:50:09;100333.28;;;1.73;100.00
79617;BME280;69097;52.132;5.422;2024-01-15T09:52:36;100330.09;;;1.71;100.00
79617;BME280;69097;52.132;5.422;2024-01-15T09:55:03;100330.84;;;1.65;100.00
79617;BME280;69097;52.132;5.422;2024-01-15T09:57:32;100336.78;;;1.63;100.00
79617;BME280;69097;52.132;5.422;2024-01-15T10:00:01;100336.78;;;1.63;100.00
79617;BME280;69097;52.132;5.422;2024-01-15T10:02:31;100338.31;;;1.61;100.00
79617;BME280;69097;52.132;5.422;2024-01-15T10:04:58;100339.47;;;1.56;100.00
79617;BME280;69097;52.132;5.422;2024-01-15T10:07:25;100344.59;;;1.54;100.00
79617;BME280;69097;52.132;5.422;2024-01-15T10:09:52;100353.34;;;1.63;100.00
79617;BME280;69097;52.132;5.422;2024-01-15T10:12:21;100357.84;;;1.85;100.00
79617;BME280;69097;52.132;5.422;2024-01-15T10:14:48;100342.03;;;1.89;100.00
79617;BME280;69097;52.132;5.422;2024-01-15T10:17:16;100336.91;;;1.88;100.00
79617;BME280;69097;52.132;5.422;2024-01-15T10:19:45;100331.34;;;1.84;100.00
79617;BME280;69097;52.132;5.422;2024-01-15T10:22:17;100344.75;;;1.82;100.00
79617;BME280;69097;52.132;5.422;2024-01-15T10:24:44;100345.59;;;1.90;100.00
79617;BME280;69097;52.132;5.422;2024-01-15T10:27:13;100350.00;;;2.01;100.00
79617;BME280;69097;52.132;5.422;2024-01-15T10:29:41;100361.84;;;1.98;100.00
79617;BME280;69097;52.132;5.422;2024-01-15T10:32:08;100360.63;;;1.89;100.00
79617;BME280;69097;52.132;5.422;2024-01-15T10:34:39;100349.09;;;1.76;100.00
79617;BME280;69097;52.132;5.422;2024-01-15T10:37:08;100347.84;;;1.67;100.00
79617;BME280;69097;52.132;5.422;2024-01-15T10:39:35;100348.19;;;1.58;100.00
79617;BME280;69097;52.132;5.422;2024-01-15T10:42:03;100340.66;;;1.52;100.00
79617;BME280;69097;52.132;5.422;2024-01-15T10:44:30;100350.09;;;1.51;100.00
79617;BME280;69097;52.132;5.422;2024-01-15T10:46:57;100344.59;;;1.54;100.00
79617;BME280;69097;52.132;5.422;2024-01-15T10:49:24;100346.63;;;1.64;100.00
79617;BME280;69097;52.132;5.422;2024-01-15T10:51:58;100344.72;;;1.72;100.00
79617;BME280;69097;52.132;5.422;2024-01-15T10:54:26;100354.19;;;1.74;100.00
79617;BME280;69097;52.132;5.422;2024-01-15T10:56:55;100352.66;;;1.80;100.00
79617;BME280;69097;52.132;5.422;2024-01-15T10:59:23;100357.47;;;1.90;100.00
79617;BME280;69097;52.132;5.422;2024-01-15T11:01:50;100366.19;;;1.99;100.00
79617;BME280;69097;52.132;5.422;2024-01-15T11:04:21;100369.38;;;2.01;100.00
79617;BME280;69097;52.132;5.422;2024-01-15T11:06:52;100364.63;;;2.02;100.00
79617;BME280;69097;52.132;5.422;2024-01-15T11:09:21;100374.13;;;2.04;100.00
79617;BME280;69097;52.132;5.422;2024-01-15T11:11:52;100376.88;;;2.04;100.00
79617;BME280;69097;52.132;5.422;2024-01-15T11:17:01;100379.22;;;2.02;100.00
79617;BME280;69097;52.132;5.422;2024-01-15T11:19:45;100385.13;;;1.97;100.00
79617;BME280;69097;52.132;5.422;2024-01-15T11:25:13;100378.41;;;1.91;100.00
79617;BME280;69097;52.132;5.422;2024-01-15T11:27:41;100383.50;;;1.86;100.00
79617;BME280;69097;52.132;5.422;2024-01-15T11:30:12;100385.06;;;1.83;100.00
79617;BME280;69097;52.132;5.422;2024-01-15T11:32:39;100377.19;;;1.85;100.00
79617;BME280;69097;52.132;5.422;2024-01-15T11:35:10;100380.00;;;1.96;100.00
79617;BME280;69097;52.132;5.422;2024-01-15T11:40:37;100372.63;;;2.24;100.00
79617;BME280;69097;52.132;5.422;2024-01-15T11:43:08;100375.75;;;2.16;100.00
79617;BME280;69097;52.132;5.422;2024-01-15T11:45:36;100379.72;;;2.15;100.00
79617;BME280;69097;52.132;5.422;2024-01-15T11:48:14;100382.53;;;2.25;100.00
79617;BME280;69097;52.132;5.422;2024-01-15T11:50:43;100388.84;;;2.29;100.00
79617;BME280;69097;52.132;5.422;2024-01-15T11:55:51;100391.59;;;2.26;100.00
79617;BME280;69097;52.132;5.422;2024-01-15T11:58:18;100386.09;;;2.22;100.00
79617;BME280;69097;52.132;5.422;2024-01-15T12:00:47;100383.69;;;2.24;100.00
79617;BME280;69097;52.132;5.422;2024-01-15T12:03:15;100383.31;;;2.29;100.00
79617;BME280;69097;52.132;5.422;2024-01-15T12:05:42;100377.03;;;2.32;100.00
79617;BME280;69097;52.132;5.422;2024-01-15T12:08:09;100390.09;;;2.39;100.00
79617;BME280;69097;52.132;5.422;2024-01-15T12:10:39;100398.78;;;2.44;100.00
79617;BME280;69097;52.132;5.422;2024-01-15T12:13:12;100409.09;;;2.44;100.00
79617;BME280;69097;52.132;5.422;2024-01-15T12:15:44;100409.88;;;2.41;100.00
79617;BME280;69097;52.132;5.422;2024-01-15T12:18:15;100415.00;;;2.39;100.00
79617;BME280;69097;52.132;5.422;2024-01-15T12:20:44;100414.19;;;2.35;100.00
79617;BME280;69097;52.132;5.422;2024-01-15T12:23:13;100432.75;;;2.27;100.00
79617;BME280;69097;52.132;5.422;2024-01-15T12:25:40;100427.13;;;2.13;100.00
79617;BME280;69097;52.132;5.422;2024-01-15T12:28:07;100428.25;;;2.05;100.00
79617;BME280;69097;52.132;5.422;2024-01-15T12:30:34;100423.91;;;2.04;100.00
79617;BME280;69097;52.132;5.422;2024-01-15T12:33:03;100420.34;;;2.07;100.00
79617;BME280;69097;52.132;5.422;2024-01-15T12:35:35;100432.25;;;2.11;100.00
79617;BME280;69097;52.132;5.422;2024-01-15T12:38:02;100432.66;;;2.13;100.00
79617;BME280;69097;52.132;5.422;2024-01-15T12:40:31;100447.25;;;2.10;100.00
79617;BME280;69097;52.132;5.422;2024-01-15T12:42:58;100440.50;;;2.04;100.00
79617;BME280;69097;52.132;5.422;2024-01-15T12:45:25;100439.69;;;2.00;100.00
79617;BME280;69097;52.132;5.422;2024-01-15T12:47:52;100435.72;;;1.98;100.00
79617;BME280;69097;52.132;5.422;2024-01-15T12:50:19;100434.13;;;1.93;100.00
79617;BME280;69097;52.132;5.422;2024-01-15T12:52:46;100443.53;;;1.85;100.00
79617;BME280;69097;52.132;5.422;2024-01-15T12:55:14;100438.00;;;1.82;100.00
79617;BME280;69097;52.132;5.422;2024-01-15T12:57:42;100442.34;;;1.86;100.00
79617;BME280;69097;52.132;5.422;2024-01-15T13:00:09;100430.09;;;1.87;100.00
79617;BME280;69097;52.132;5.422;2024-01-15T13:02:40;100432.09;;;1.87;100.00